sensor_id;sensor_type;location;lat;lon;timestamp;P1;durP1;ratioP1;P2;durP2;ratioP2
74799;SDS011;63326;45.088;7.658;2022-09-09T00:04:46;8.80;;;4.45;;
74799;SDS011;63326;45.088;7.658;2022-09-09T00:10:35;8.68;;;4.38;;
74799;SDS011;63326;45.088;7.658;2022-09-09T00:16:07;11.18;;;3.95;;
74799;SDS011;63326;45.088;7.658;2022-09-09T00:21:38;7.47;;;4.00;;
74799;SDS011;63326;45.088;7.658;2022-09-09T00:24:10;8.13;;;3.78;;
74799;SDS011;63326;45.088;7.658;2022-09-09T00:26:51;8.40;;;3.83;;
74799;SDS011;63326;45.088;7.658;2022-09-09T00:32:00;9.60;;;3.80;;
74799;SDS011;63326;45.088;7.658;2022-09-09T00:34:36;8.95;;;4.00;;
74799;SDS011;63326;45.088;7.658;2022-09-09T00:37:08;8.05;;;3.95;;
74799;SDS011;63326;45.088;7.658;2022-09-09T00:39:36;11.00;;;4.10;;
74799;SDS011;63326;45.088;7.658;2022-09-09T00:44:41;8.80;;;5.50;;
74799;SDS011;63326;45.088;7.658;2022-09-09T00:58:15;9.63;;;4.63;;
74799;SDS011;63326;45.088;7.658;2022-09-09T01:00:44;8.52;;;3.60;;
74799;SDS011;63326;45.088;7.658;2022-09-09T01:08:46;7.68;;;3.80;;
74799;SDS011;63326;45.088;7.658;2022-09-09T01:17:21;8.20;;;3.50;;
74799;SDS011;63326;45.088;7.658;2022-09-09T01:19:55;7.65;;;3.55;;
74799;SDS011;63326;45.088;7.658;2022-09-09T01:27:53;8.70;;;3.80;;
74799;SDS011;63326;45.088;7.658;2022-09-09T01:30:22;7.47;;;3.40;;
74799;SDS011;63326;45.088;7.658;2022-09-09T01:32:49;11.23;;;3.75;;
74799;SDS011;63326;45.088;7.658;2022-09-09T01:35:29;9.55;;;3.70;;
74799;SDS011;63326;45.088;7.658;2022-09-09T01:37:56;7.38;;;3.50;;
74799;SDS011;63326;45.088;7.658;2022-09-09T01:40:22;7.20;;;4.20;;
74799;SDS011;63326;45.088;7.658;2022-09-09T01:42:49;8.55;;;4.28;;
74799;SDS011;63326;45.088;7.658;2022-09-09T01:45:15;10.82;;;4.72;;
74799;SDS011;63326;45.088;7.658;2022-09-09T01:47:41;9.02;;;4.57;;
74799;SDS011;63326;45.088;7.658;2022-09-09T01:50:06;9.95;;;4.93;;
74799;SDS011;63326;45.088;7.658;2022-09-09T01:52:36;11.13;;;5.30;;
74799;SDS011;63326;45.088;7.658;2022-09-09T01:55:02;11.55;;;5.55;;
74799;SDS011;63326;45.088;7.658;2022-09-09T01:57:30;11.63;;;5.45;;
74799;SDS011;63326;45.088;7.658;2022-09-09T02:05:41;10.95;;;6.00;;
74799;SDS011;63326;45.088;7.658;2022-09-09T02:11:16;13.48;;;6.03;;
74799;SDS011;63326;45.088;7.658;2022-09-09T02:13:43;10.98;;;5.78;;
74799;SDS011;63326;45.088;7.658;2022-09-09T02:16:15;10.63;;;5.32;;
74799;SDS011;63326;45.088;7.658;2022-09-09T02:21:30;11.43;;;5.78;;
74799;SDS011;63326;45.088;7.658;2022-09-09T02:23:56;11.45;;;5.60;;
74799;SDS011;63326;45.088;7.658;2022-09-09T02:26:24;10.32;;;5.32;;
74799;SDS011;63326;45.088;7.658;2022-09-09T02:28:51;10.27;;;6.00;;
74799;SDS011;63326;45.088;7.658;2022-09-09T02:31:21;10.68;;;5.18;;
74799;SDS011;63326;45.088;7.658;2022-09-09T02:33:51;9.10;;;4.68;;
74799;SDS011;63326;45.088;7.658;2022-09-09T02:36:23;9.32;;;4.78;;
74799;SDS011;63326;45.088;7.658;2022-09-09T02:38:50;12.35;;;5.47;;
74799;SDS011;63326;45.088;7.658;2022-09-09T02:41:30;10.23;;;4.47;;
74799;SDS011;63326;45.088;7.658;2022-09-09T02:43:57;9.35;;;4.47;;
74799;SDS011;63326;45.088;7.658;2022-09-09T02:54:59;10.38;;;4.43;;
74799;SDS011;63326;45.088;7.658;2022-09-09T02:57:33;10.75;;;4.72;;
74799;SDS011;63326;45.088;7.658;2022-09-09T03:00:00;11.55;;;4.47;;
74799;SDS011;63326;45.088;7.658;2022-09-09T03:02:26;8.88;;;4.50;;
74799;SDS011;63326;45.088;7.658;2022-09-09T03:04:52;11.55;;;5.30;;
74799;SDS011;63326;45.088;7.658;2022-09-09T03:07:17;11.48;;;5.60;;
74799;SDS011;63326;45.088;7.658;2022-09-09T03:09:44;10.45;;;5.80;;
74799;SDS011;63326;45.088;7.658;2022-09-09T03:12:09;9.63;;;5.10;;
74799;SDS011;63326;45.088;7.658;2022-09-09T03:14:36;13.48;;;5.57;;
74799;SDS011;63326;45.088;7.658;2022-09-09T03:17:03;11.30;;;6.15;;
74799;SDS011;63326;45.088;7.658;2022-09-09T03:19:28;12.18;;;5.47;;
74799;SDS011;63326;45.088;7.658;2022-09-09T03:21:54;13.95;;;5.70;;
74799;SDS011;63326;45.088;7.658;2022-09-09T03:24:20;12.65;;;5.43;;
74799;SDS011;63326;45.088;7.658;2022-09-09T03:26:46;10.48;;;5.15;;
74799;SDS011;63326;45.088;7.658;2022-09-09T03:29:12;11.02;;;5.10;;
74799;SDS011;63326;45.088;7.658;2022-09-09T03:31:38;10.60;;;5.00;;
74799;SDS011;63326;45.088;7.658;2022-09-09T03:34:04;10.60;;;4.95;;
74799;SDS011;63326;45.088;7.658;2022-09-09T03:36:30;10.30;;;5.25;;
74799;SDS011;63326;45.088;7.658;2022-09-09T03:38:56;10.15;;;5.00;;
74799;SDS011;63326;45.088;7.658;2022-09-09T03:41:22;11.98;;;5.22;;
74799;SDS011;63326;45.088;7.658;2022-09-09T03:43:51;12.95;;;5.47;;
74799;SDS011;63326;45.088;7.658;2022-09-09T03:46:18;9.02;;;5.22;;
74799;SDS011;63326;45.088;7.658;2022-09-09T03:48:44;11.00;;;5.55;;
74799;SDS011;63326;45.088;7.658;2022-09-09T03:51:09;12.00;;;5.38;;
74799;SDS011;63326;45.088;7.658;2022-09-09T03:53:35;11.75;;;5.50;;
74799;SDS011;63326;45.088;7.658;2022-09-09T03:56:02;10.93;;;6.15;;
74799;SDS011;63326;45.088;7.658;2022-09-09T03:58:28;9.73;;;5.20;;
74799;SDS011;63326;45.088;7.658;2022-09-09T04:00:54;11.43;;;4.93;;
74799;SDS011;63326;45.088;7.658;2022-09-09T04:03:24;10.82;;;5.22;;
74799;SDS011;63326;45.088;7.658;2022-09-09T04:05:50;12.20;;;5.50;;
74799;SDS011;63326;45.088;7.658;2022-09-09T04:08:17;9.15;;;4.47;;
74799;SDS011;63326;45.088;7.658;2022-09-09T04:10:44;9.35;;;5.03;;
74799;SDS011;63326;45.088;7.658;2022-09-09T04:13:11;11.57;;;4.72;;
74799;SDS011;63326;45.088;7.658;2022-09-09T04:15:39;10.20;;;4.55;;
74799;SDS011;63326;45.088;7.658;2022-09-09T04:18:04;10.60;;;5.07;;
74799;SDS011;63326;45.088;7.658;2022-09-09T04:20:30;10.25;;;4.80;;
74799;SDS011;63326;45.088;7.658;2022-09-09T04:22:55;8.50;;;4.63;;
74799;SDS011;63326;45.088;7.658;2022-09-09T04:25:21;12.83;;;5.07;;
74799;SDS011;63326;45.088;7.658;2022-09-09T04:27:46;10.97;;;4.97;;
74799;SDS011;63326;45.088;7.658;2022-09-09T04:30:12;11.45;;;5.55;;
74799;SDS011;63326;45.088;7.658;2022-09-09T04:32:37;9.68;;;5.18;;
74799;SDS011;63326;45.088;7.658;2022-09-09T04:35:03;9.80;;;5.03;;
74799;SDS011;63326;45.088;7.658;2022-09-09T04:37:28;10.00;;;4.93;;
74799;SDS011;63326;45.088;7.658;2022-09-09T04:39:54;9.90;;;4.93;;
74799;SDS011;63326;45.088;7.658;2022-09-09T04:42:19;10.32;;;4.88;;
74799;SDS011;63326;45.088;7.658;2022-09-09T04:44:45;9.55;;;5.05;;
74799;SDS011;63326;45.088;7.658;2022-09-09T04:47:10;11.82;;;5.95;;
74799;SDS011;63326;45.088;7.658;2022-09-09T04:49:36;9.35;;;4.38;;
74799;SDS011;63326;45.088;7.658;2022-09-09T04:52:02;8.77;;;3.80;;
74799;SDS011;63326;45.088;7.658;2022-09-09T04:54:28;10.82;;;6.10;;
74799;SDS011;63326;45.088;7.658;2022-09-09T04:56:54;9.00;;;3.72;;
74799;SDS011;63326;45.088;7.658;2022-09-09T04:59:19;10.80;;;3.80;;
74799;SDS011;63326;45.088;7.658;2022-09-09T05:01:45;9.05;;;4.40;;
74799;SDS011;63326;45.088;7.658;2022-09-09T05:04:10;9.85;;;4.00;;
74799;SDS011;63326;45.088;7.658;2022-09-09T05:06:36;10.18;;;4.18;;
74799;SDS011;63326;45.088;7.658;2022-09-09T05:09:02;9.48;;;3.70;;
74799;SDS011;63326;45.088;7.658;2022-09-09T05:11:29;7.80;;;3.40;;
74799;SDS011;63326;45.088;7.658;2022-09-09T05:13:57;12.48;;;4.43;;
74799;SDS011;63326;45.088;7.658;2022-09-09T05:16:22;10.88;;;4.38;;
74799;SDS011;63326;45.088;7.658;2022-09-09T05:18:48;10.07;;;3.75;;
74799;SDS011;63326;45.088;7.658;2022-09-09T05:21:15;9.30;;;4.25;;
74799;SDS011;63326;45.088;7.658;2022-09-09T05:23:41;11.57;;;4.50;;
74799;SDS011;63326;45.088;7.658;2022-09-09T05:26:09;9.57;;;4.60;;
74799;SDS011;63326;45.088;7.658;2022-09-09T05:28:38;9.07;;;3.72;;
74799;SDS011;63326;45.088;7.658;2022-09-09T05:31:04;10.07;;;4.28;;
74799;SDS011;63326;45.088;7.658;2022-09-09T05:33:33;12.50;;;3.63;;
74799;SDS011;63326;45.088;7.658;2022-09-09T05:36:00;11.70;;;4.65;;
74799;SDS011;63326;45.088;7.658;2022-09-09T05:38:28;11.10;;;3.85;;
74799;SDS011;63326;45.088;7.658;2022-09-09T05:40:55;9.27;;;3.33;;
74799;SDS011;63326;45.088;7.658;2022-09-09T05:43:21;11.25;;;4.18;;
74799;SDS011;63326;45.088;7.658;2022-09-09T05:45:47;10.68;;;4.78;;
74799;SDS011;63326;45.088;7.658;2022-09-09T05:48:13;9.27;;;4.60;;
74799;SDS011;63326;45.088;7.658;2022-09-09T05:53:10;8.15;;;3.63;;
74799;SDS011;63326;45.088;7.658;2022-09-09T05:55:36;11.57;;;4.68;;
74799;SDS011;63326;45.088;7.658;2022-09-09T05:58:01;15.10;;;5.13;;
74799;SDS011;63326;45.088;7.658;2022-09-09T06:00:27;8.73;;;4.40;;
74799;SDS011;63326;45.088;7.658;2022-09-09T06:02:53;11.73;;;4.65;;
74799;SDS011;63326;45.088;7.658;2022-09-09T06:05:19;13.43;;;7.25;;
74799;SDS011;63326;45.088;7.658;2022-09-09T06:07:45;13.07;;;5.38;;
74799;SDS011;63326;45.088;7.658;2022-09-09T06:10:11;10.20;;;4.88;;
74799;SDS011;63326;45.088;7.658;2022-09-09T06:12:38;10.48;;;5.28;;
74799;SDS011;63326;45.088;7.658;2022-09-09T06:15:04;11.65;;;4.88;;
74799;SDS011;63326;45.088;7.658;2022-09-09T06:17:30;14.63;;;5.85;;
74799;SDS011;63326;45.088;7.658;2022-09-09T06:19:55;14.65;;;5.32;;
74799;SDS011;63326;45.088;7.658;2022-09-09T06:22:21;13.30;;;6.13;;
74799;SDS011;63326;45.088;7.658;2022-09-09T06:24:46;16.13;;;5.40;;
74799;SDS011;63326;45.088;7.658;2022-09-09T06:27:11;13.37;;;6.37;;
74799;SDS011;63326;45.088;7.658;2022-09-09T06:29:38;14.02;;;6.25;;
74799;SDS011;63326;45.088;7.658;2022-09-09T06:32:03;11.90;;;4.93;;
74799;SDS011;63326;45.088;7.658;2022-09-09T06:34:29;12.32;;;5.20;;
74799;SDS011;63326;45.088;7.658;2022-09-09T06:36:55;13.55;;;5.68;;
74799;SDS011;63326;45.088;7.658;2022-09-09T06:39:22;13.43;;;5.55;;
74799;SDS011;63326;45.088;7.658;2022-09-09T06:41:48;10.20;;;5.07;;
74799;SDS011;63326;45.088;7.658;2022-09-09T06:44:14;9.80;;;4.35;;
74799;SDS011;63326;45.088;7.658;2022-09-09T06:46:40;9.27;;;4.03;;
74799;SDS011;63326;45.088;7.658;2022-09-09T06:49:07;9.27;;;3.92;;
74799;SDS011;63326;45.088;7.658;2022-09-09T06:51:34;11.65;;;4.38;;
74799;SDS011;63326;45.088;7.658;2022-09-09T06:54:01;11.45;;;4.38;;
74799;SDS011;63326;45.088;7.658;2022-09-09T06:56:48;12.75;;;6.72;;
74799;SDS011;63326;45.088;7.658;2022-09-09T06:59:14;10.88;;;4.43;;
74799;SDS011;63326;45.088;7.658;2022-09-09T07:01:41;12.05;;;4.82;;
74799;SDS011;63326;45.088;7.658;2022-09-09T07:04:11;9.18;;;4.10;;
74799;SDS011;63326;45.088;7.658;2022-09-09T07:06:39;11.20;;;4.45;;
74799;SDS011;63326;45.088;7.658;2022-09-09T07:09:08;11.23;;;4.93;;
74799;SDS011;63326;45.088;7.658;2022-09-09T07:11:39;9.13;;;4.22;;
74799;SDS011;63326;45.088;7.658;2022-09-09T07:14:04;9.43;;;4.13;;
74799;SDS011;63326;45.088;7.658;2022-09-09T07:16:30;10.85;;;4.50;;
74799;SDS011;63326;45.088;7.658;2022-09-09T07:18:58;11.38;;;4.78;;
74799;SDS011;63326;45.088;7.658;2022-09-09T07:21:24;9.98;;;3.83;;
74799;SDS011;63326;45.088;7.658;2022-09-09T07:23:51;9.95;;;4.15;;
74799;SDS011;63326;45.088;7.658;2022-09-09T07:26:18;8.57;;;3.42;;
74799;SDS011;63326;45.088;7.658;2022-09-09T07:28:45;9.98;;;3.83;;
74799;SDS011;63326;45.088;7.658;2022-09-09T07:31:14;10.30;;;4.95;;
74799;SDS011;63326;45.088;7.658;2022-09-09T07:33:42;10.10;;;4.10;;
74799;SDS011;63326;45.088;7.658;2022-09-09T07:36:10;11.18;;;3.95;;
74799;SDS011;63326;45.088;7.658;2022-09-09T07:38:39;8.75;;;3.90;;
74799;SDS011;63326;45.088;7.658;2022-09-09T07:41:14;10.68;;;5.47;;
74799;SDS011;63326;45.088;7.658;2022-09-09T07:43:45;13.05;;;5.93;;
74799;SDS011;63326;45.088;7.658;2022-09-09T07:46:13;19.10;;;6.72;;
74799;SDS011;63326;45.088;7.658;2022-09-09T07:48:43;13.02;;;6.63;;
74799;SDS011;63326;45.088;7.658;2022-09-09T07:51:14;14.40;;;7.15;;
74799;SDS011;63326;45.088;7.658;2022-09-09T07:53:44;14.50;;;8.65;;
74799;SDS011;63326;45.088;7.658;2022-09-09T07:56:14;17.55;;;9.23;;
74799;SDS011;63326;45.088;7.658;2022-09-09T07:58:45;18.85;;;8.77;;
74799;SDS011;63326;45.088;7.658;2022-09-09T08:01:13;23.63;;;9.50;;
74799;SDS011;63326;45.088;7.658;2022-09-09T08:03:40;16.42;;;9.23;;
74799;SDS011;63326;45.088;7.658;2022-09-09T08:06:07;16.35;;;8.73;;
74799;SDS011;63326;45.088;7.658;2022-09-09T08:08:34;15.70;;;7.88;;
74799;SDS011;63326;45.088;7.658;2022-09-09T08:11:05;14.38;;;8.07;;
74799;SDS011;63326;45.088;7.658;2022-09-09T08:13:35;17.35;;;9.23;;
74799;SDS011;63326;45.088;7.658;2022-09-09T08:16:22;15.45;;;8.05;;
74799;SDS011;63326;45.088;7.658;2022-09-09T08:18:47;14.35;;;8.40;;
74799;SDS011;63326;45.088;7.658;2022-09-09T08:21:15;18.08;;;8.70;;
74799;SDS011;63326;45.088;7.658;2022-09-09T08:23:43;16.92;;;9.32;;
74799;SDS011;63326;45.088;7.658;2022-09-09T08:26:20;17.33;;;9.05;;
74799;SDS011;63326;45.088;7.658;2022-09-09T08:28:47;18.75;;;9.35;;
74799;SDS011;63326;45.088;7.658;2022-09-09T08:31:16;19.08;;;9.43;;
74799;SDS011;63326;45.088;7.658;2022-09-09T08:33:44;16.05;;;8.90;;
74799;SDS011;63326;45.088;7.658;2022-09-09T08:36:16;15.50;;;9.07;;
74799;SDS011;63326;45.088;7.658;2022-09-09T08:38:48;17.90;;;8.85;;
74799;SDS011;63326;45.088;7.658;2022-09-09T08:43:47;17.48;;;9.98;;
74799;SDS011;63326;45.088;7.658;2022-09-09T08:48:58;12.07;;;6.88;;
74799;SDS011;63326;45.088;7.658;2022-09-09T08:51:30;13.93;;;6.85;;
74799;SDS011;63326;45.088;7.658;2022-09-09T08:53:58;13.00;;;7.30;;
74799;SDS011;63326;45.088;7.658;2022-09-09T08:56:27;15.63;;;8.20;;
74799;SDS011;63326;45.088;7.658;2022-09-09T08:58:57;12.75;;;8.10;;
74799;SDS011;63326;45.088;7.658;2022-09-09T09:04:14;13.45;;;6.43;;
74799;SDS011;63326;45.088;7.658;2022-09-09T09:12:28;13.65;;;6.93;;
74799;SDS011;63326;45.088;7.658;2022-09-09T09:14:58;12.32;;;7.03;;
74799;SDS011;63326;45.088;7.658;2022-09-09T09:17:25;16.77;;;7.28;;
74799;SDS011;63326;45.088;7.658;2022-09-09T09:19:53;14.43;;;6.57;;
74799;SDS011;63326;45.088;7.658;2022-09-09T09:22:19;10.45;;;4.97;;
74799;SDS011;63326;45.088;7.658;2022-09-09T09:24:55;14.65;;;6.25;;
74799;SDS011;63326;45.088;7.658;2022-09-09T09:27:27;16.23;;;6.00;;
74799;SDS011;63326;45.088;7.658;2022-09-09T09:29:59;10.43;;;4.85;;
74799;SDS011;63326;45.088;7.658;2022-09-09T09:32:28;10.52;;;4.88;;
74799;SDS011;63326;45.088;7.658;2022-09-09T09:34:58;12.38;;;5.65;;
74799;SDS011;63326;45.088;7.658;2022-09-09T09:37:30;13.43;;;4.53;;
74799;SDS011;63326;45.088;7.658;2022-09-09T09:40:11;10.95;;;4.38;;
74799;SDS011;63326;45.088;7.658;2022-09-09T09:42:47;14.88;;;5.15;;
74799;SDS011;63326;45.088;7.658;2022-09-09T09:45:28;10.30;;;5.28;;
74799;SDS011;63326;45.088;7.658;2022-09-09T09:48:01;11.02;;;5.28;;
74799;SDS011;63326;45.088;7.658;2022-09-09T09:50:31;10.80;;;5.38;;
74799;SDS011;63326;45.088;7.658;2022-09-09T09:53:02;11.70;;;5.65;;
74799;SDS011;63326;45.088;7.658;2022-09-09T09:55:30;12.07;;;5.75;;
74799;SDS011;63326;45.088;7.658;2022-09-09T09:58:02;11.88;;;5.95;;
74799;SDS011;63326;45.088;7.658;2022-09-09T10:00:29;13.45;;;5.70;;
74799;SDS011;63326;45.088;7.658;2022-09-09T10:02:54;10.70;;;5.32;;
74799;SDS011;63326;45.088;7.658;2022-09-09T10:07:46;13.95;;;4.82;;
74799;SDS011;63326;45.088;7.658;2022-09-09T10:10:19;9.25;;;4.85;;
74799;SDS011;63326;45.088;7.658;2022-09-09T10:12:59;12.60;;;5.95;;
74799;SDS011;63326;45.088;7.658;2022-09-09T10:34:39;6.30;;;2.75;;
74799;SDS011;63326;45.088;7.658;2022-09-09T10:37:27;9.57;;;3.22;;
74799;SDS011;63326;45.088;7.658;2022-09-09T10:40:27;8.38;;;3.42;;
74799;SDS011;63326;45.088;7.658;2022-09-09T10:51:33;5.43;;;2.22;;
74799;SDS011;63326;45.088;7.658;2022-09-09T10:56:58;7.88;;;3.17;;
74799;SDS011;63326;45.088;7.658;2022-09-09T10:59:29;7.28;;;3.42;;
74799;SDS011;63326;45.088;7.658;2022-09-09T11:02:06;7.40;;;2.55;;
74799;SDS011;63326;45.088;7.658;2022-09-09T11:05:10;6.00;;;2.60;;
74799;SDS011;63326;45.088;7.658;2022-09-09T11:07:42;7.45;;;2.90;;
74799;SDS011;63326;45.088;7.658;2022-09-09T11:13:31;7.97;;;3.30;;
74799;SDS011;63326;45.088;7.658;2022-09-09T11:16:16;6.75;;;2.42;;
74799;SDS011;63326;45.088;7.658;2022-09-09T11:18:50;6.60;;;2.40;;
74799;SDS011;63326;45.088;7.658;2022-09-09T11:21:23;8.15;;;2.50;;
74799;SDS011;63326;45.088;7.658;2022-09-09T11:23:57;6.88;;;2.63;;
74799;SDS011;63326;45.088;7.658;2022-09-09T11:26:35;6.88;;;3.03;;
74799;SDS011;63326;45.088;7.658;2022-09-09T11:43:01;5.82;;;2.50;;
74799;SDS011;63326;45.088;7.658;2022-09-09T11:45:31;6.15;;;2.38;;
74799;SDS011;63326;45.088;7.658;2022-09-09T11:48:02;8.48;;;2.72;;
74799;SDS011;63326;45.088;7.658;2022-09-09T11:50:29;6.35;;;2.22;;
74799;SDS011;63326;45.088;7.658;2022-09-09T11:55:38;5.78;;;2.90;;
74799;SDS011;63326;45.088;7.658;2022-09-09T11:58:15;6.38;;;2.72;;
74799;SDS011;63326;45.088;7.658;2022-09-09T12:00:43;8.95;;;2.95;;
74799;SDS011;63326;45.088;7.658;2022-09-09T12:03:33;8.45;;;3.00;;
74799;SDS011;63326;45.088;7.658;2022-09-09T12:11:07;6.65;;;2.60;;
74799;SDS011;63326;45.088;7.658;2022-09-09T12:13:32;6.60;;;2.70;;
74799;SDS011;63326;45.088;7.658;2022-09-09T12:15:59;6.32;;;2.33;;
74799;SDS011;63326;45.088;7.658;2022-09-09T12:18:31;5.45;;;2.47;;
74799;SDS011;63326;45.088;7.658;2022-09-09T12:26:22;5.85;;;2.58;;
74799;SDS011;63326;45.088;7.658;2022-09-09T12:37:52;6.47;;;2.60;;
74799;SDS011;63326;45.088;7.658;2022-09-09T12:39:54;5.70;;;2.58;;
74799;SDS011;63326;45.088;7.658;2022-09-09T12:42:21;7.53;;;2.42;;
74799;SDS011;63326;45.088;7.658;2022-09-09T12:44:58;4.97;;;2.22;;
74799;SDS011;63326;45.088;7.658;2022-09-09T12:47:37;6.28;;;2.30;;
74799;SDS011;63326;45.088;7.658;2022-09-09T12:50:15;6.50;;;2.60;;
74799;SDS011;63326;45.088;7.658;2022-09-09T12:52:42;4.65;;;2.15;;
74799;SDS011;63326;45.088;7.658;2022-09-09T12:55:15;7.10;;;2.28;;
74799;SDS011;63326;45.088;7.658;2022-09-09T12:57:50;6.05;;;2.50;;
74799;SDS011;63326;45.088;7.658;2022-09-09T13:02:50;9.20;;;2.47;;
74799;SDS011;63326;45.088;7.658;2022-09-09T13:07:49;6.95;;;1.85;;
74799;SDS011;63326;45.088;7.658;2022-09-09T13:10:20;5.40;;;2.03;;
74799;SDS011;63326;45.088;7.658;2022-09-09T13:12:49;7.22;;;2.30;;
74799;SDS011;63326;45.088;7.658;2022-09-09T13:15:24;6.43;;;2.20;;
74799;SDS011;63326;45.088;7.658;2022-09-09T13:17:53;4.25;;;1.98;;
74799;SDS011;63326;45.088;7.658;2022-09-09T13:20:21;5.30;;;2.00;;
74799;SDS011;63326;45.088;7.658;2022-09-09T13:22:48;8.13;;;2.50;;
74799;SDS011;63326;45.088;7.658;2022-09-09T13:28:03;6.82;;;2.50;;
74799;SDS011;63326;45.088;7.658;2022-09-09T13:30:31;6.63;;;1.48;;
74799;SDS011;63326;45.088;7.658;2022-09-09T13:38:16;5.75;;;1.63;;
74799;SDS011;63326;45.088;7.658;2022-09-09T13:40:55;4.63;;;1.80;;
74799;SDS011;63326;45.088;7.658;2022-09-09T13:43:28;4.85;;;2.03;;
74799;SDS011;63326;45.088;7.658;2022-09-09T13:46:03;5.93;;;2.30;;
74799;SDS011;63326;45.088;7.658;2022-09-09T13:48:30;5.32;;;2.10;;
74799;SDS011;63326;45.088;7.658;2022-09-09T13:53:23;7.32;;;2.50;;
74799;SDS011;63326;45.088;7.658;2022-09-09T13:55:48;4.45;;;1.92;;
74799;SDS011;63326;45.088;7.658;2022-09-09T13:58:16;5.43;;;1.80;;
74799;SDS011;63326;45.088;7.658;2022-09-09T14:00:45;6.50;;;1.85;;
74799;SDS011;63326;45.088;7.658;2022-09-09T14:03:11;3.97;;;1.65;;
74799;SDS011;63326;45.088;7.658;2022-09-09T14:05:36;4.43;;;1.60;;
74799;SDS011;63326;45.088;7.658;2022-09-09T14:08:06;4.57;;;1.42;;
74799;SDS011;63326;45.088;7.658;2022-09-09T14:10:32;3.38;;;1.50;;
74799;SDS011;63326;45.088;7.658;2022-09-09T14:13:01;5.45;;;2.00;;
74799;SDS011;63326;45.088;7.658;2022-09-09T14:15:27;6.10;;;1.50;;
74799;SDS011;63326;45.088;7.658;2022-09-09T14:17:53;3.28;;;1.27;;
74799;SDS011;63326;45.088;7.658;2022-09-09T14:20:18;3.70;;;1.40;;
74799;SDS011;63326;45.088;7.658;2022-09-09T14:22:44;3.83;;;1.40;;
74799;SDS011;63326;45.088;7.658;2022-09-09T14:25:09;3.38;;;1.30;;
74799;SDS011;63326;45.088;7.658;2022-09-09T14:27:36;4.25;;;1.60;;
74799;SDS011;63326;45.088;7.658;2022-09-09T14:30:03;4.63;;;1.17;;
74799;SDS011;63326;45.088;7.658;2022-09-09T14:32:29;3.47;;;1.42;;
74799;SDS011;63326;45.088;7.658;2022-09-09T14:34:54;2.80;;;1.40;;
74799;SDS011;63326;45.088;7.658;2022-09-09T14:37:20;2.33;;;1.17;;
74799;SDS011;63326;45.088;7.658;2022-09-09T14:39:45;4.40;;;1.45;;
74799;SDS011;63326;45.088;7.658;2022-09-09T14:42:12;4.97;;;1.63;;
74799;SDS011;63326;45.088;7.658;2022-09-09T14:44:38;3.92;;;1.50;;
74799;SDS011;63326;45.088;7.658;2022-09-09T14:47:06;4.47;;;2.70;;
74799;SDS011;63326;45.088;7.658;2022-09-09T14:49:33;4.38;;;1.85;;
74799;SDS011;63326;45.088;7.658;2022-09-09T14:51:59;6.53;;;1.70;;
74799;SDS011;63326;45.088;7.658;2022-09-09T14:54:24;4.67;;;1.70;;
74799;SDS011;63326;45.088;7.658;2022-09-09T14:56:49;3.47;;;2.10;;
74799;SDS011;63326;45.088;7.658;2022-09-09T14:59:15;6.38;;;1.67;;
74799;SDS011;63326;45.088;7.658;2022-09-09T15:01:40;4.53;;;1.73;;
74799;SDS011;63326;45.088;7.658;2022-09-09T15:04:06;4.63;;;1.65;;
74799;SDS011;63326;45.088;7.658;2022-09-09T15:06:32;4.95;;;1.92;;
74799;SDS011;63326;45.088;7.658;2022-09-09T15:09:00;4.80;;;1.70;;
74799;SDS011;63326;45.088;7.658;2022-09-09T15:11:27;5.82;;;1.80;;
74799;SDS011;63326;45.088;7.658;2022-09-09T15:13:55;5.53;;;1.90;;
74799;SDS011;63326;45.088;7.658;2022-09-09T15:16:21;4.03;;;1.85;;
74799;SDS011;63326;45.088;7.658;2022-09-09T15:18:53;4.55;;;1.70;;
74799;SDS011;63326;45.088;7.658;2022-09-09T15:21:20;4.57;;;1.92;;
74799;SDS011;63326;45.088;7.658;2022-09-09T15:23:48;5.63;;;2.03;;
74799;SDS011;63326;45.088;7.658;2022-09-09T15:26:14;5.55;;;2.25;;
74799;SDS011;63326;45.088;7.658;2022-09-09T15:28:40;3.78;;;1.42;;
74799;SDS011;63326;45.088;7.658;2022-09-09T15:31:15;4.10;;;1.70;;
74799;SDS011;63326;45.088;7.658;2022-09-09T15:33:52;6.15;;;1.70;;
74799;SDS011;63326;45.088;7.658;2022-09-09T15:36:20;4.72;;;1.92;;
74799;SDS011;63326;45.088;7.658;2022-09-09T15:41:12;7.40;;;2.03;;
74799;SDS011;63326;45.088;7.658;2022-09-09T15:43:39;4.68;;;2.15;;
74799;SDS011;63326;45.088;7.658;2022-09-09T15:46:21;3.35;;;1.70;;
74799;SDS011;63326;45.088;7.658;2022-09-09T15:48:51;5.05;;;1.90;;
74799;SDS011;63326;45.088;7.658;2022-09-09T15:51:17;4.93;;;1.75;;
74799;SDS011;63326;45.088;7.658;2022-09-09T15:53:43;3.35;;;1.55;;
74799;SDS011;63326;45.088;7.658;2022-09-09T15:56:09;4.60;;;1.88;;
74799;SDS011;63326;45.088;7.658;2022-09-09T15:58:35;4.65;;;2.00;;
74799;SDS011;63326;45.088;7.658;2022-09-09T16:01:04;4.88;;;2.00;;
74799;SDS011;63326;45.088;7.658;2022-09-09T16:03:38;4.47;;;2.28;;
74799;SDS011;63326;45.088;7.658;2022-09-09T16:06:14;5.43;;;2.33;;
74799;SDS011;63326;45.088;7.658;2022-09-09T16:08:41;5.63;;;2.00;;
74799;SDS011;63326;45.088;7.658;2022-09-09T16:13:35;5.40;;;2.08;;
74799;SDS011;63326;45.088;7.658;2022-09-09T16:16:02;7.20;;;2.20;;
74799;SDS011;63326;45.088;7.658;2022-09-09T16:24:10;6.22;;;2.58;;
74799;SDS011;63326;45.088;7.658;2022-09-09T16:26:38;5.85;;;2.25;;
74799;SDS011;63326;45.088;7.658;2022-09-09T16:29:04;5.32;;;2.28;;
74799;SDS011;63326;45.088;7.658;2022-09-09T16:31:30;4.93;;;2.22;;
74799;SDS011;63326;45.088;7.658;2022-09-09T16:33:57;5.90;;;2.88;;
74799;SDS011;63326;45.088;7.658;2022-09-09T16:36:24;5.60;;;2.85;;
74799;SDS011;63326;45.088;7.658;2022-09-09T16:38:52;7.32;;;2.25;;
74799;SDS011;63326;45.088;7.658;2022-09-09T16:41:22;3.60;;;1.92;;
74799;SDS011;63326;45.088;7.658;2022-09-09T16:43:52;4.43;;;1.98;;
74799;SDS011;63326;45.088;7.658;2022-09-09T16:46:19;5.57;;;2.15;;
74799;SDS011;63326;45.088;7.658;2022-09-09T16:48:45;7.07;;;2.03;;
74799;SDS011;63326;45.088;7.658;2022-09-09T16:51:14;6.25;;;2.17;;
74799;SDS011;63326;45.088;7.658;2022-09-09T16:53:39;6.03;;;2.28;;
74799;SDS011;63326;45.088;7.658;2022-09-09T16:56:07;2.90;;;1.80;;
74799;SDS011;63326;45.088;7.658;2022-09-09T16:58:33;5.00;;;1.88;;
74799;SDS011;63326;45.088;7.658;2022-09-09T17:01:00;7.18;;;2.83;;
74799;SDS011;63326;45.088;7.658;2022-09-09T17:05:52;6.28;;;2.10;;
74799;SDS011;63326;45.088;7.658;2022-09-09T17:08:18;6.47;;;1.87;;
74799;SDS011;63326;45.088;7.658;2022-09-09T17:10:43;8.48;;;2.47;;
74799;SDS011;63326;45.088;7.658;2022-09-09T17:13:08;5.80;;;2.83;;
74799;SDS011;63326;45.088;7.658;2022-09-09T17:15:38;5.57;;;2.00;;
74799;SDS011;63326;45.088;7.658;2022-09-09T17:18:07;6.00;;;2.20;;
74799;SDS011;63326;45.088;7.658;2022-09-09T17:20:35;5.65;;;2.45;;
74799;SDS011;63326;45.088;7.658;2022-09-09T17:23:04;4.25;;;2.30;;
74799;SDS011;63326;45.088;7.658;2022-09-09T17:25:31;5.75;;;2.28;;
74799;SDS011;63326;45.088;7.658;2022-09-09T17:27:56;4.13;;;1.90;;
74799;SDS011;63326;45.088;7.658;2022-09-09T17:30:23;6.63;;;2.25;;
74799;SDS011;63326;45.088;7.658;2022-09-09T17:32:48;6.93;;;2.00;;
74799;SDS011;63326;45.088;7.658;2022-09-09T17:35:14;6.87;;;2.27;;
74799;SDS011;63326;45.088;7.658;2022-09-09T17:37:39;5.50;;;2.13;;
74799;SDS011;63326;45.088;7.658;2022-09-09T17:40:04;4.10;;;1.87;;
74799;SDS011;63326;45.088;7.658;2022-09-09T17:42:30;10.02;;;2.83;;
74799;SDS011;63326;45.088;7.658;2022-09-09T17:44:56;5.88;;;2.20;;
74799;SDS011;63326;45.088;7.658;2022-09-09T17:47:21;6.50;;;2.38;;
74799;SDS011;63326;45.088;7.658;2022-09-09T17:49:47;6.90;;;2.50;;
74799;SDS011;63326;45.088;7.658;2022-09-09T17:52:12;6.32;;;2.60;;
74799;SDS011;63326;45.088;7.658;2022-09-09T17:54:37;8.20;;;2.43;;